Time;durP1;ratioP1;P1;durP2;ratioP2;P2;SDS_P1;SDS_P2;PMS_P1;PMS_P2;Temp;Humidity;BMP_temperature;BMP_pressure;BME280_temperature;BME280_humidity;BME280_pressure;Samples;Min_cycle;Max_cycle;Signal;HPM_P1;HPM_P2
2023/06/09 00:00:18;;;;;;;18.77;5.85;;;12.70;99.90;;;;;;5030842;28;20059;-66
2023/06/09 00:02:47;;;;;;;14.30;5.60;;;12.70;99.90;;;;;;5029828;28;20053;-66
2023/06/09 00:05:13;;;;;;;14.85;5.53;;;12.70;99.90;;;;;;5031825;28;20052;-66
2023/06/09 00:07:39;;;;;;;17.58;5.20;;;12.70;99.90;;;;;;5034774;28;20462;-66
2023/06/09 00:10:06;;;;;;;15.35;5.15;;;12.70;99.90;;;;;;5042681;28;20124;-66
2023/06/09 00:12:31;;;;;;;14.88;6.20;;;12.80;99.90;;;;;;5031933;28;20065;-66
2023/06/09 00:14:58;;;;;;;15.95;5.75;;;12.80;99.90;;;;;;5032924;28;20127;-66
2023/06/09 00:17:24;;;;;;;14.30;5.68;;;12.80;99.90;;;;;;5035495;28;20045;-66
2023/06/09 00:19:52;;;;;;;13.35;5.80;;;12.80;99.90;;;;;;5035386;28;20041;-66
2023/06/09 00:22:19;;;;;;;15.50;6.68;;;12.90;99.90;;;;;;5035098;28;20041;-66
2023/06/09 00:24:46;;;;;;;16.63;6.00;;;12.80;99.90;;;;;;5041250;28;20045;-66
2023/06/09 00:27:12;;;;;;;14.75;6.32;;;12.80;99.90;;;;;;5034032;28;20386;-65
2023/06/09 00:29:37;;;;;;;15.10;5.30;;;12.80;99.90;;;;;;5034694;28;20116;-66
2023/06/09 00:32:04;;;;;;;18.73;5.75;;;12.80;99.90;;;;;;5034401;28;20041;-66
2023/06/09 00:34:30;;;;;;;17.23;5.63;;;12.90;99.90;;;;;;5034765;28;20133;-66
2023/06/09 00:36:55;;;;;;;14.82;5.82;;;12.90;99.90;;;;;;5034790;28;20116;-66
2023/06/09 00:39:21;;;;;;;13.52;5.80;;;12.90;99.90;;;;;;5034110;28;20458;-66
2023/06/09 00:41:47;;;;;;;14.63;5.82;;;12.80;99.90;;;;;;5034132;28;20049;-66
2023/06/09 00:44:12;;;;;;;17.80;5.78;;;12.80;99.90;;;;;;5034369;28;20449;-66
2023/06/09 00:46:39;;;;;;;14.25;5.60;;;12.80;99.90;;;;;;5033918;28;20036;-66
2023/06/09 00:49:05;;;;;;;14.20;6.03;;;12.80;99.90;;;;;;5034098;28;20044;-66
2023/06/09 00:51:33;;;;;;;20.13;6.90;;;12.80;99.90;;;;;;5032541;28;20045;-66
2023/06/09 00:53:59;;;;;;;16.55;5.60;;;12.80;99.90;;;;;;5032332;28;20475;-66
2023/06/09 00:56:25;;;;;;;20.42;6.28;;;12.80;99.90;;;;;;5033241;28;20068;-66
2023/06/09 00:58:51;;;;;;;15.70;7.10;;;12.70;99.90;;;;;;5041019;28;20033;-66
2023/06/09 01:01:17;;;;;;;14.13;5.80;;;12.70;99.90;;;;;;5027772;28;20052;-66
2023/06/09 01:03:42;;;;;;;15.98;6.13;;;12.70;99.90;;;;;;5032752;28;20037;-66
2023/06/09 01:06:26;;;;;;;15.27;6.22;;;12.60;99.90;;;;;;5033224;28;20041;-66
2023/06/09 01:09:16;;;;;;;17.30;5.72;;;12.70;99.90;;;;;;5033988;28;20124;-66
2023/06/09 01:12:01;;;;;;;17.85;6.80;;;12.60;99.90;;;;;;5030835;28;20038;-66
2023/06/09 01:14:33;;;;;;;16.90;6.40;;;12.60;99.90;;;;;;5031949;28;20128;-65
2023/06/09 01:17:11;;;;;;;13.25;5.47;;;12.60;99.90;;;;;;5032437;28;20061;-66
2023/06/09 01:19:43;;;;;;;19.77;6.82;;;12.50;99.90;;;;;;5032236;28;20081;-66
2023/06/09 01:22:36;;;;;;;17.48;6.20;;;12.50;99.90;;;;;;5033383;28;20519;-66
2023/06/09 01:25:34;;;;;;;12.60;5.90;;;12.50;99.90;;;;;;5033503;28;20041;-65
2023/06/09 01:28:11;;;;;;;18.25;6.20;;;12.40;99.90;;;;;;5034023;28;20052;-66
2023/06/09 01:30:40;;;;;;;16.98;5.72;;;12.40;99.90;;;;;;5034799;28;20037;-65
2023/06/09 01:33:14;;;;;;;21.27;6.03;;;12.30;99.90;;;;;;5033799;28;20052;-66
2023/06/09 01:35:40;;;;;;;19.77;6.43;;;12.30;99.90;;;;;;5034013;28;20042;-66
2023/06/09 01:38:07;;;;;;;17.70;5.85;;;12.30;99.90;;;;;;5032625;28;20466;-66
2023/06/09 01:40:33;;;;;;;19.42;5.78;;;12.20;99.90;;;;;;5032750;28;20116;-66
2023/06/09 01:43:04;;;;;;;18.77;6.28;;;12.20;99.90;;;;;;5033681;28;20518;-66
2023/06/09 01:45:30;;;;;;;16.90;7.05;;;12.20;99.90;;;;;;5033223;28;20120;-66
2023/06/09 01:47:56;;;;;;;19.50;6.63;;;12.20;99.90;;;;;;5042658;28;20112;-66
2023/06/09 01:50:41;;;;;;;18.00;6.55;;;12.20;99.90;;;;;;5034348;28;20099;-66
2023/06/09 01:53:16;;;;;;;20.85;6.53;;;12.20;99.90;;;;;;5033641;28;20049;-66
2023/06/09 01:55:52;;;;;;;17.48;6.45;;;12.20;99.90;;;;;;5033752;28;20519;-66
2023/06/09 01:58:23;;;;;;;18.45;6.80;;;12.20;99.90;;;;;;5033008;28;20041;-66
2023/06/09 02:00:51;;;;;;;19.60;6.50;;;12.10;99.90;;;;;;5030388;28;20052;-66
2023/06/09 02:03:22;;;;;;;16.38;6.80;;;12.20;99.90;;;;;;5031591;28;20125;-66
2023/06/09 02:05:51;;;;;;;22.80;6.97;;;12.10;99.90;;;;;;5030223;28;20547;-66
2023/06/09 02:08:17;;;;;;;19.77;6.72;;;12.10;99.90;;;;;;5025575;28;20037;-66
2023/06/09 02:10:43;;;;;;;22.65;6.72;;;12.10;99.90;;;;;;5033081;28;20450;-65
2023/06/09 02:13:18;;;;;;;19.92;7.38;;;12.00;99.90;;;;;;5031591;28;20805;-66
2023/06/09 02:15:45;;;;;;;15.20;6.68;;;12.10;99.90;;;;;;5031827;28;20058;-66
2023/06/09 02:18:12;;;;;;;22.63;6.63;;;12.00;99.90;;;;;;5033090;28;20454;-66
2023/06/09 02:20:40;;;;;;;18.65;6.97;;;12.00;99.90;;;;;;5041141;28;20065;-66
2023/06/09 02:23:06;;;;;;;18.00;6.97;;;12.00;99.90;;;;;;5038716;28;20127;-66
2023/06/09 02:25:32;;;;;;;19.67;6.72;;;12.00;99.90;;;;;;5030997;28;20107;-66
2023/06/09 02:28:01;;;;;;;14.15;6.95;;;12.00;99.90;;;;;;5032687;28;20088;-66
2023/06/09 02:30:27;;;;;;;17.90;7.05;;;12.00;99.90;;;;;;5032831;28;20506;-66
2023/06/09 02:32:54;;;;;;;22.48;7.32;;;12.00;99.90;;;;;;5032601;28;20033;-66
2023/06/09 02:35:20;;;;;;;25.92;8.07;;;12.00;99.90;;;;;;5028934;28;20045;-66
2023/06/09 02:37:46;;;;;;;19.30;7.65;;;12.00;99.90;;;;;;5032656;28;20507;-66
2023/06/09 02:40:12;;;;;;;21.10;8.32;;;12.00;99.90;;;;;;5032335;28;20094;-67
2023/06/09 02:42:38;;;;;;;19.02;8.13;;;12.00;99.90;;;;;;5033063;28;20038;-66
2023/06/09 02:45:06;;;;;;;17.35;7.57;;;12.00;99.90;;;;;;5029851;28;20391;-66
2023/06/09 02:47:32;;;;;;;23.17;8.27;;;12.00;99.90;;;;;;5032209;28;20041;-66
2023/06/09 02:49:57;;;;;;;22.02;8.40;;;12.00;99.90;;;;;;5032065;28;20033;-66
2023/06/09 02:52:23;;;;;;;30.27;8.90;;;12.00;99.90;;;;;;5029647;28;20029;-66
2023/06/09 02:54:48;;;;;;;21.92;8.50;;;12.00;99.90;;;;;;5036386;28;20065;-66
2023/06/09 02:57:14;;;;;;;23.65;8.60;;;12.00;99.90;;;;;;5050550;22;20191;-63
2023/06/09 02:59:40;;;;;;;22.90;7.97;;;12.00;99.90;;;;;;5050595;28;20095;-63
2023/06/09 03:02:06;;;;;;;20.65;8.25;;;12.00;99.90;;;;;;5050708;28;20043;-63
2023/06/09 03:04:34;;;;;;;21.52;8.57;;;12.00;99.90;;;;;;5050965;28;20037;-61
2023/06/09 03:07:00;;;;;;;21.75;8.45;;;12.00;99.90;;;;;;5049274;28;20056;-63
2023/06/09 03:09:26;;;;;;;21.92;8.13;;;11.90;99.90;;;;;;5039322;28;20034;-63
2023/06/09 03:11:51;;;;;;;22.55;8.00;;;11.90;99.90;;;;;;5048430;28;20470;-63
2023/06/09 03:14:17;;;;;;;23.73;8.57;;;11.90;99.90;;;;;;5049644;28;20037;-62
2023/06/09 03:16:42;;;;;;;19.35;8.48;;;11.90;99.90;;;;;;5044355;28;20037;-63
2023/06/09 03:19:08;;;;;;;25.17;8.00;;;12.00;99.90;;;;;;5051891;28;20041;-63
2023/06/09 03:21:35;;;;;;;22.73;8.88;;;11.90;99.90;;;;;;5043275;28;20102;-62
2023/06/09 03:24:05;;;;;;;27.13;8.45;;;11.90;99.90;;;;;;5049872;28;20046;-63
2023/06/09 03:26:31;;;;;;;22.25;8.23;;;12.00;99.90;;;;;;5045363;28;20041;-63
2023/06/09 03:28:57;;;;;;;20.58;7.82;;;11.90;99.90;;;;;;5050432;28;20082;-63
2023/06/09 03:31:23;;;;;;;21.65;8.52;;;11.90;99.90;;;;;;5050574;28;20112;-63
2023/06/09 03:33:48;;;;;;;19.88;8.00;;;12.00;99.90;;;;;;5050223;28;20037;-62
2023/06/09 03:36:14;;;;;;;24.17;8.90;;;12.00;99.90;;;;;;5048802;28;20557;-63
2023/06/09 03:38:40;;;;;;;18.52;7.38;;;12.00;99.90;;;;;;5042165;28;20037;-62
2023/06/09 03:41:05;;;;;;;17.70;8.07;;;12.00;99.90;;;;;;5051176;28;20037;-63
2023/06/09 03:43:31;;;;;;;23.80;7.80;;;12.00;99.90;;;;;;5046943;28;20490;-63
2023/06/09 03:45:57;;;;;;;20.98;8.23;;;12.00;99.90;;;;;;5040402;28;20041;-63
2023/06/09 03:48:22;;;;;;;23.75;7.75;;;12.00;99.90;;;;;;5041369;28;20119;-62
2023/06/09 03:50:48;;;;;;;21.38;7.93;;;12.00;99.90;;;;;;5041915;28;20051;-63
2023/06/09 03:53:13;;;;;;;24.92;8.05;;;12.00;99.90;;;;;;5043762;28;20049;-63
2023/06/09 03:55:39;;;;;;;21.48;8.15;;;12.00;99.90;;;;;;5043424;28;20533;-63
2023/06/09 03:58:06;;;;;;;24.35;8.80;;;12.00;99.90;;;;;;5044273;28;20047;-63
2023/06/09 04:00:31;;;;;;;25.27;8.63;;;11.90;99.90;;;;;;5044258;28;20722;-63
2023/06/09 04:02:57;;;;;;;17.30;7.93;;;12.00;99.90;;;;;;5040782;28;20057;-62
2023/06/09 04:05:24;;;;;;;21.40;8.77;;;12.00;99.90;;;;;;5048404;28;20384;-63
2023/06/09 04:07:52;;;;;;;19.77;8.63;;;12.00;99.90;;;;;;5050999;28;20044;-62
2023/06/09 04:10:17;;;;;;;21.08;8.68;;;12.00;99.90;;;;;;5049870;28;20470;-62
2023/06/09 04:12:43;;;;;;;20.05;8.20;;;12.00;99.90;;;;;;5051046;28;20037;-63
2023/06/09 04:15:09;;;;;;;24.73;8.90;;;12.00;99.90;;;;;;5050836;28;20071;-63
2023/06/09 04:17:37;;;;;;;21.20;8.35;;;12.10;99.90;;;;;;5051500;28;20402;-63
2023/06/09 04:20:07;;;;;;;21.38;9.10;;;12.10;99.90;;;;;;5048703;28;20082;-63
2023/06/09 04:22:33;;;;;;;25.30;8.98;;;12.10;99.90;;;;;;5048766;28;20123;-62
2023/06/09 04:25:01;;;;;;;20.73;8.80;;;12.20;99.90;;;;;;5042596;28;20518;-62
2023/06/09 04:27:27;;;;;;;25.23;8.88;;;12.10;99.90;;;;;;5048644;28;20410;-62
2023/06/09 04:29:53;;;;;;;24.95;8.98;;;12.20;99.90;;;;;;5039926;28;21193;-63
2023/06/09 04:32:19;;;;;;;19.85;8.02;;;12.20;99.90;;;;;;5048574;28;20594;-63
2023/06/09 04:34:45;;;;;;;22.67;9.02;;;12.20;99.90;;;;;;5047139;28;20060;-63
2023/06/09 04:37:12;;;;;;;26.25;8.60;;;12.20;99.90;;;;;;5050360;28;20486;-63
2023/06/09 04:39:45;;;;;;;18.88;8.57;;;12.20;99.90;;;;;;5049819;28;20045;-63
2023/06/09 04:42:11;;;;;;;23.15;8.25;;;12.30;99.90;;;;;;5050368;28;20114;-63
2023/06/09 04:44:39;;;;;;;24.98;9.55;;;12.30;99.90;;;;;;5048537;28;20041;-63
2023/06/09 04:47:05;;;;;;;20.45;9.07;;;12.30;99.90;;;;;;5050758;28;20047;-63
2023/06/09 04:49:31;;;;;;;23.60;8.63;;;12.40;99.90;;;;;;5048989;28;20041;-63
2023/06/09 04:51:58;;;;;;;24.92;9.18;;;12.50;99.90;;;;;;5051701;28;20494;-63
2023/06/09 04:54:25;;;;;;;23.58;8.88;;;12.50;99.90;;;;;;5050114;28;20048;-63
2023/06/09 04:56:57;;;;;;;26.92;9.15;;;12.60;99.90;;;;;;5045880;28;20064;-63
2023/06/09 04:59:23;;;;;;;24.20;9.27;;;12.70;99.90;;;;;;5045276;28;20037;-63
2023/06/09 05:01:51;;;;;;;24.55;9.50;;;12.70;99.90;;;;;;5053153;28;20037;-63
2023/06/09 05:04:17;;;;;;;29.08;9.55;;;12.80;99.90;;;;;;5051487;28;20048;-63
2023/06/09 05:06:43;;;;;;;22.67;10.00;;;12.90;99.90;;;;;;5052608;28;20116;-63
2023/06/09 05:09:08;;;;;;;23.67;8.27;;;13.00;99.90;;;;;;5053097;28;20124;-63
2023/06/09 05:11:37;;;;;;;24.77;8.60;;;13.10;99.90;;;;;;5052762;28;20568;-62
2023/06/09 05:14:07;;;;;;;24.27;9.88;;;13.10;99.90;;;;;;5052860;28;20049;-63
2023/06/09 05:16:36;;;;;;;20.15;9.80;;;13.20;99.90;;;;;;5052222;28;20084;-63
2023/06/09 05:19:02;;;;;;;18.30;9.50;;;13.30;99.90;;;;;;5053536;28;20071;-63
2023/06/09 05:21:27;;;;;;;21.77;9.38;;;13.40;99.90;;;;;;5049756;28;20375;-63
2023/06/09 05:23:53;;;;;;;20.90;8.77;;;13.40;99.90;;;;;;5053117;28;20040;-63
2023/06/09 05:26:19;;;;;;;26.25;9.15;;;13.50;99.90;;;;;;5052186;28;20116;-63
2023/06/09 05:28:46;;;;;;;27.70;10.05;;;13.60;99.90;;;;;;5044518;28;20037;-62
2023/06/09 05:31:11;;;;;;;21.25;8.95;;;13.70;99.90;;;;;;5051891;28;20064;-63
2023/06/09 05:33:37;;;;;;;29.25;9.25;;;13.80;99.90;;;;;;5053654;28;20455;-63
2023/06/09 05:36:03;;;;;;;23.73;9.70;;;14.00;99.90;;;;;;5052943;28;20043;-63
2023/06/09 05:38:29;;;;;;;23.17;9.50;;;14.10;99.90;;;;;;5053011;28;20101;-63
2023/06/09 05:40:55;;;;;;;20.58;9.80;;;14.20;99.90;;;;;;5053759;28;20456;-63
2023/06/09 05:43:21;;;;;;;29.77;10.40;;;14.30;99.90;;;;;;5053463;28;20037;-63
2023/06/09 05:45:47;;;;;;;22.10;9.55;;;14.30;99.90;;;;;;5053992;28;20052;-63
2023/06/09 05:48:12;;;;;;;21.70;9.77;;;14.40;99.90;;;;;;5053930;28;20517;-62
2023/06/09 05:50:38;;;;;;;20.42;9.88;;;14.50;99.90;;;;;;5053677;28;20047;-63
2023/06/09 05:53:04;;;;;;;20.13;10.10;;;14.50;99.90;;;;;;5052152;28;20058;-63
2023/06/09 05:55:29;;;;;;;20.88;8.88;;;14.70;99.90;;;;;;5043594;28;20033;-63
2023/06/09 05:57:56;;;;;;;23.73;10.13;;;14.70;99.90;;;;;;5053072;28;20458;-62
2023/06/09 06:00:29;;;;;;;28.85;10.63;;;14.80;99.90;;;;;;5053774;28;20398;-63
2023/06/09 06:02:59;;;;;;;27.33;10.48;;;14.90;99.90;;;;;;5052501;28;20048;-63
2023/06/09 06:05:24;;;;;;;19.38;9.75;;;15.00;99.90;;;;;;5053606;28;20388;-63
2023/06/09 06:07:50;;;;;;;20.60;9.63;;;15.10;99.90;;;;;;5052895;28;20044;-63
2023/06/09 06:10:16;;;;;;;21.13;10.13;;;15.20;99.90;;;;;;5051268;28;20128;-66
2023/06/09 06:12:41;;;;;;;25.98;9.88;;;15.30;99.90;;;;;;5042659;28;20052;-66
2023/06/09 06:15:07;;;;;;;19.95;9.43;;;15.40;99.90;;;;;;5051392;28;20040;-64
2023/06/09 06:17:33;;;;;;;17.75;9.25;;;15.50;99.90;;;;;;5050423;28;20033;-65
2023/06/09 06:19:59;;;;;;;23.17;10.23;;;15.50;99.90;;;;;;5042238;28;20116;-66
2023/06/09 06:22:24;;;;;;;20.02;9.32;;;15.60;99.90;;;;;;5048410;28;20040;-65
2023/06/09 06:24:50;;;;;;;19.10;9.18;;;15.70;99.90;;;;;;5048908;28;20055;-66
2023/06/09 06:27:16;;;;;;;20.88;9.18;;;15.80;99.90;;;;;;5049517;28;20040;-65
2023/06/09 06:29:41;;;;;;;19.00;9.30;;;15.80;99.90;;;;;;5051129;28;20032;-66
2023/06/09 06:32:08;;;;;;;22.20;8.90;;;16.00;99.90;;;;;;5040786;28;20048;-65
2023/06/09 06:34:34;;;;;;;19.02;8.55;;;16.10;99.90;;;;;;5043745;28;20056;-66
2023/06/09 06:37:00;;;;;;;17.42;9.13;;;16.20;99.90;;;;;;5052539;28;20108;-65
2023/06/09 06:39:26;;;;;;;20.05;9.82;;;16.30;99.90;;;;;;5052800;28;20029;-65
2023/06/09 06:41:51;;;;;;;19.17;9.25;;;16.40;99.90;;;;;;5049881;28;20071;-66
2023/06/09 06:44:17;;;;;;;20.63;10.30;;;16.60;99.90;;;;;;5052558;28;20056;-66
2023/06/09 06:46:42;;;;;;;18.42;9.15;;;16.60;99.90;;;;;;5045712;28;20041;-65
2023/06/09 06:49:08;;;;;;;20.45;8.68;;;16.70;99.90;;;;;;5051444;28;20040;-66
2023/06/09 06:51:34;;;;;;;24.75;9.95;;;16.80;99.90;;;;;;5052282;28;20090;-66
2023/06/09 06:54:00;;;;;;;19.27;8.88;;;17.00;99.90;;;;;;5051512;28;20124;-65
2023/06/09 06:56:26;;;;;;;23.17;9.60;;;17.00;99.90;;;;;;5051170;28;20087;-65
2023/06/09 06:58:52;;;;;;;28.08;10.02;;;17.10;99.90;;;;;;5051393;28;20048;-65
2023/06/09 07:01:21;;;;;;;18.02;9.00;;;17.30;99.90;;;;;;5052346;28;20041;-65
2023/06/09 07:03:49;;;;;;;18.27;8.32;;;17.50;99.90;;;;;;5050652;28;20041;-65
2023/06/09 07:06:17;;;;;;;17.73;8.63;;;17.60;99.90;;;;;;5044308;28;20041;-65
2023/06/09 07:08:43;;;;;;;21.30;9.02;;;17.70;99.90;;;;;;5050970;28;20111;-65
2023/06/09 07:11:09;;;;;;;16.25;8.00;;;17.90;99.90;;;;;;5050597;28;20491;-65
2023/06/09 07:13:35;;;;;;;19.38;8.27;;;18.00;99.90;;;;;;5055709;28;20043;-65
2023/06/09 07:16:01;;;;;;;17.17;7.95;;;18.30;99.90;;;;;;5053463;28;20041;-65
2023/06/09 07:18:27;;;;;;;15.25;7.53;;;18.40;99.90;;;;;;5051684;28;20040;-65
2023/06/09 07:20:53;;;;;;;22.23;8.13;;;18.50;99.90;;;;;;5051202;28;20037;-65
2023/06/09 07:23:19;;;;;;;19.17;8.63;;;18.60;99.90;;;;;;5049381;28;20040;-65
2023/06/09 07:25:45;;;;;;;15.98;8.27;;;18.70;99.90;;;;;;5049483;28;20406;-65
2023/06/09 07:28:10;;;;;;;21.17;7.90;;;18.90;99.90;;;;;;5049467;28;20044;-66
2023/06/09 07:30:39;;;;;;;16.58;7.90;;;19.10;99.90;;;;;;5051970;28;20033;-66
2023/06/09 07:33:05;;;;;;;15.88;8.20;;;19.20;99.90;;;;;;5048651;28;20048;-66
2023/06/09 07:35:30;;;;;;;18.33;6.80;;;19.20;99.90;;;;;;5051442;28;20037;-66
2023/06/09 07:37:56;;;;;;;13.70;6.63;;;19.30;99.90;;;;;;5050761;28;20043;-66
2023/06/09 07:40:22;;;;;;;15.15;6.63;;;19.50;99.90;;;;;;5049192;28;20037;-66
2023/06/09 07:42:50;;;;;;;14.32;6.63;;;19.60;99.90;;;;;;5047381;28;20064;-65
2023/06/09 07:45:16;;;;;;;16.27;6.90;;;19.80;99.90;;;;;;5043109;28;20037;-66
2023/06/09 07:47:42;;;;;;;15.73;6.85;;;20.00;99.90;;;;;;5043501;28;20040;-66
2023/06/09 07:50:08;;;;;;;11.05;6.80;;;20.20;99.90;;;;;;5046418;28;20048;-66
2023/06/09 07:52:36;;;;;;;13.38;6.80;;;20.20;99.90;;;;;;5044961;28;20565;-66
2023/06/09 07:55:03;;;;;;;14.38;6.70;;;20.30;99.90;;;;;;5047949;28;20052;-66
2023/06/09 07:57:28;;;;;;;13.95;6.90;;;20.40;99.90;;;;;;5048785;28;20044;-66
2023/06/09 07:59:54;;;;;;;11.45;6.70;;;20.30;99.90;;;;;;5051629;28;20043;-66
2023/06/09 08:02:20;;;;;;;14.98;6.40;;;20.50;99.90;;;;;;5051416;28;20047;-66
2023/06/09 08:04:45;;;;;;;12.00;6.50;;;20.70;99.90;;;;;;5050932;28;20044;-67
2023/06/09 08:07:11;;;;;;;12.52;6.43;;;20.90;99.90;;;;;;5049241;28;20510;-66
2023/06/09 08:09:37;;;;;;;11.27;6.15;;;21.00;99.90;;;;;;5049708;28;20041;-66
2023/06/09 08:12:07;;;;;;;13.55;6.18;;;21.20;99.90;;;;;;5048555;28;20025;-66
2023/06/09 08:14:33;;;;;;;14.98;5.95;;;21.40;99.90;;;;;;5049236;28;20060;-67
2023/06/09 08:16:58;;;;;;;10.77;6.28;;;21.60;99.90;;;;;;5042364;28;20112;-66
2023/06/09 08:19:24;;;;;;;14.32;6.78;;;21.80;99.90;;;;;;5050255;28;20033;-66
2023/06/09 08:21:50;;;;;;;16.10;7.22;;;21.90;99.90;;;;;;5049734;28;20045;-66
2023/06/09 08:24:16;;;;;;;12.82;6.35;;;21.90;99.90;;;;;;5046521;28;20041;-66
2023/06/09 08:26:43;;;;;;;13.43;6.28;;;22.00;99.90;;;;;;5041525;28;20124;-66
2023/06/09 08:29:10;;;;;;;11.10;5.50;;;22.00;99.90;;;;;;5052548;28;20097;-66
2023/06/09 08:31:37;;;;;;;9.57;6.00;;;22.10;99.90;;;;;;5054177;28;20048;-66
2023/06/09 08:34:03;;;;;;;10.90;6.32;;;22.20;99.90;;;;;;5046028;28;20093;-66
2023/06/09 08:36:28;;;;;;;12.68;6.38;;;22.30;99.90;;;;;;5053660;28;20124;-66
2023/06/09 08:38:54;;;;;;;13.63;6.18;;;22.50;99.90;;;;;;5053918;28;20033;-66
2023/06/09 08:41:24;;;;;;;12.55;6.10;;;22.60;99.90;;;;;;5050971;28;20041;-66
2023/06/09 08:43:50;;;;;;;10.40;6.53;;;22.60;99.90;;;;;;5053880;28;20045;-66
2023/06/09 08:46:17;;;;;;;13.23;5.68;;;22.70;99.90;;;;;;5053997;28;20041;-67
2023/06/09 08:48:52;;;;;;;10.18;6.20;;;22.70;99.90;;;;;;5057234;28;20494;-67
2023/06/09 08:51:21;;;;;;;12.25;5.93;;;22.90;99.90;;;;;;5048919;28;20041;-66
2023/06/09 08:53:50;;;;;;;11.02;6.43;;;23.10;99.90;;;;;;5053507;28;20036;-67
2023/06/09 08:56:16;;;;;;;8.40;5.47;;;23.20;99.90;;;;;;5042961;28;20058;-67
2023/06/09 08:58:41;;;;;;;11.68;6.30;;;23.30;99.90;;;;;;5053134;28;20025;-67
2023/06/09 09:01:08;;;;;;;11.57;6.07;;;23.50;99.90;;;;;;5053652;28;20116;-67
2023/06/09 09:03:34;;;;;;;9.57;6.22;;;23.50;99.90;;;;;;5052961;28;20060;-67
2023/06/09 09:05:59;;;;;;;17.60;7.05;;;23.80;99.90;;;;;;5054438;28;20049;-67
2023/06/09 09:08:25;;;;;;;14.90;6.63;;;23.90;99.90;;;;;;5053476;28;20039;-67
2023/06/09 09:10:50;;;;;;;11.50;6.18;;;23.90;99.90;;;;;;5050367;28;20543;-67
2023/06/09 09:13:18;;;;;;;11.45;6.65;;;23.80;99.90;;;;;;5052036;28;20071;-67
2023/06/09 09:15:50;;;;;;;14.30;6.40;;;23.90;99.90;;;;;;5054076;28;20040;-67
2023/06/09 09:18:17;;;;;;;11.18;6.00;;;24.10;99.90;;;;;;5047026;28;20041;-67
2023/06/09 09:20:43;;;;;;;8.27;5.60;;;24.20;99.90;;;;;;5052446;28;20051;-67
2023/06/09 09:23:09;;;;;;;10.85;5.95;;;24.40;99.90;;;;;;5051978;28;20063;-67
2023/06/09 09:25:34;;;;;;;11.65;5.82;;;24.50;99.70;;;;;;5052367;28;20429;-67
2023/06/09 09:28:08;;;;;;;11.20;5.70;;;24.70;99.90;;;;;;5053394;28;20045;-67
2023/06/09 09:30:39;;;;;;;11.63;5.55;;;24.90;99.80;;;;;;5053560;28;20048;-67
2023/06/09 09:33:09;;;;;;;13.20;5.78;;;24.90;99.00;;;;;;5053669;28;20052;-68
2023/06/09 09:35:44;;;;;;;9.55;6.18;;;24.90;98.60;;;;;;5049640;28;20068;-67
2023/06/09 09:38:27;;;;;;;11.38;5.40;;;24.90;97.50;;;;;;5042199;28;20033;-67
2023/06/09 09:40:58;;;;;;;9.30;5.85;;;25.00;97.80;;;;;;5051245;28;20033;-67
2023/06/09 09:43:30;;;;;;;;;;;25.20;96.40;;;;;;5042845;28;20124;-67
2023/06/09 09:46:01;;;;;;;10.65;5.68;;;25.30;96.70;;;;;;5050979;28;19920;-66
2023/06/09 09:48:26;;;;;;;;;;;25.50;96.80;;;;;;5047422;28;20055;-66
2023/06/09 09:50:54;;;;;;;9.98;5.47;;;25.50;94.00;;;;;;5062944;22;20015;-66
2023/06/09 09:53:47;;;;;;;10.77;5.82;;;25.60;95.20;;;;;;5044362;28;20047;-65
2023/06/09 09:56:23;;;;;;;9.27;5.40;;;25.70;94.00;;;;;;5047063;28;20040;-66
2023/06/09 09:58:52;;;;;;;9.32;5.45;;;25.60;94.00;;;;;;5052078;28;20053;-65
2023/06/09 10:01:23;;;;;;;9.57;5.38;;;25.80;93.70;;;;;;5048834;28;20040;-66
2023/06/09 10:03:51;;;;;;;8.48;5.93;;;25.90;93.70;;;;;;5048983;28;20091;-66
2023/06/09 10:06:19;;;;;;;8.38;5.10;;;26.10;92.30;;;;;;5047906;28;20410;-67
2023/06/09 10:08:45;;;;;;;9.70;5.72;;;26.20;91.00;;;;;;5050607;28;20479;-66
2023/06/09 10:11:12;;;;;;;9.82;5.35;;;26.30;89.40;;;;;;5050041;28;20048;-66
2023/06/09 10:13:38;;;;;;;9.68;5.57;;;26.40;88.10;;;;;;5049768;28;20049;-66
2023/06/09 10:16:04;;;;;;;7.65;5.50;;;26.50;87.00;;;;;;5048408;28;20037;-66
2023/06/09 10:18:31;;;;;;;9.38;5.70;;;26.50;85.10;;;;;;5047319;28;20034;-66
2023/06/09 10:20:57;;;;;;;9.32;5.18;;;26.70;82.60;;;;;;5050737;28;20044;-66
2023/06/09 10:23:23;;;;;;;8.88;5.40;;;26.80;80.10;;;;;;5047576;28;20048;-66
2023/06/09 10:25:49;;;;;;;7.95;4.90;;;26.90;76.30;;;;;;5049780;28;20037;-66
2023/06/09 10:28:16;;;;;;;13.77;5.93;;;27.00;75.30;;;;;;5049954;28;20060;-66
2023/06/09 10:30:43;;;;;;;6.55;5.30;;;27.10;75.40;;;;;;5050202;28;20036;-66
2023/06/09 10:33:24;;;;;;;7.90;5.20;;;27.20;75.00;;;;;;5043423;28;20128;-66
2023/06/09 10:35:57;;;;;;;9.55;5.45;;;27.20;71.40;;;;;;5050615;28;20041;-66
2023/06/09 10:38:29;;;;;;;8.55;5.07;;;27.20;73.70;;;;;;5051978;28;20079;-66
2023/06/09 10:41:11;;;;;;;8.57;5.32;;;27.30;73.20;;;;;;5049340;28;20044;-66
2023/06/09 10:44:16;;;;;;;10.27;5.80;;;27.30;72.20;;;;;;5043389;28;20076;-66
2023/06/09 10:46:42;;;;;;;8.07;5.05;;;27.30;70.90;;;;;;5045674;28;20088;-66
2023/06/09 10:49:40;;;;;;;8.00;5.10;;;27.50;73.20;;;;;;5048239;28;20049;-66
2023/06/09 10:52:35;;;;;;;7.40;5.38;;;27.60;70.10;;;;;;5048650;28;20435;-66
2023/06/09 10:55:15;;;;;;;7.43;4.95;;;27.80;69.90;;;;;;5051629;28;20077;-67
2023/06/09 10:57:42;;;;;;;9.07;5.43;;;27.90;69.90;;;;;;5050027;28;20482;-66
2023/06/09 11:00:12;;;;;;;7.68;5.28;;;27.80;67.30;;;;;;5042212;28;20067;-66
2023/06/09 11:02:45;;;;;;;8.05;5.13;;;27.90;66.70;;;;;;5048220;28;20045;-66
2023/06/09 11:05:12;;;;;;;6.85;4.95;;;28.00;65.30;;;;;;5049459;28;20032;-66
2023/06/09 11:07:43;;;;;;;8.48;5.20;;;28.10;64.20;;;;;;5051455;28;20086;-66
2023/06/09 11:10:11;;;;;;;7.45;5.20;;;28.10;63.50;;;;;;5051390;28;20449;-66
2023/06/09 11:12:36;;;;;;;6.07;5.07;;;28.20;63.30;;;;;;5052268;28;20495;-66
2023/06/09 11:15:03;;;;;;;7.35;5.05;;;28.30;63.10;;;;;;5048908;28;20079;-66
2023/06/09 11:17:43;;;;;;;8.38;5.10;;;28.30;62.10;;;;;;5049103;28;20620;-66
2023/06/09 11:20:11;;;;;;;6.57;4.97;;;28.40;60.90;;;;;;5051759;28;20036;-66
2023/06/09 11:22:48;;;;;;;5.85;4.88;;;28.40;61.40;;;;;;5051089;28;20048;-66
2023/06/09 11:25:17;;;;;;;7.45;5.00;;;28.50;62.10;;;;;;5043236;28;20036;-66
2023/06/09 11:27:46;;;;;;;6.25;5.43;;;28.50;60.30;;;;;;5043470;28;20065;-66
2023/06/09 11:30:20;;;;;;;7.55;5.43;;;28.50;60.20;;;;;;5031607;28;20037;-66
2023/06/09 11:32:53;;;;;;;6.53;5.00;;;28.50;60.60;;;;;;5039637;28;20394;-66
2023/06/09 11:35:40;;;;;;;8.45;4.88;;;28.60;61.00;;;;;;5041533;28;20043;-66
2023/06/09 11:38:10;;;;;;;5.85;4.82;;;28.70;59.90;;;;;;5050447;28;20124;-66
2023/06/09 11:40:48;;;;;;;11.17;4.83;;;28.80;59.60;;;;;;5050757;28;20040;-66
2023/06/09 11:43:13;;;;;;;6.32;4.90;;;28.90;59.90;;;;;;5048475;28;20086;-66
2023/06/09 11:45:39;;;;;;;7.88;5.47;;;28.90;60.20;;;;;;5050665;28;20041;-66
2023/06/09 11:48:06;;;;;;;7.50;5.00;;;29.00;59.50;;;;;;5046549;28;20033;-66
2023/06/09 11:50:39;;;;;;;9.60;5.22;;;28.90;58.80;;;;;;5044331;28;20045;-66
2023/06/09 11:53:13;;;;;;;7.90;4.90;;;28.90;57.80;;;;;;5040282;28;20046;-67
2023/06/09 11:55:39;;;;;;;8.48;4.90;;;28.90;57.80;;;;;;5050449;28;20482;-66
2023/06/09 11:58:08;;;;;;;8.85;5.00;;;29.00;58.80;;;;;;5042095;28;20123;-67
2023/06/09 12:00:38;;;;;;;7.35;4.72;;;29.10;58.60;;;;;;5043566;28;20069;-66
2023/06/09 12:03:05;;;;;;;7.40;5.37;;;29.20;57.30;;;;;;5057070;28;20512;-66
2023/06/09 12:05:31;;;;;;;8.98;4.78;;;29.20;56.40;;;;;;5056155;28;20037;-66
2023/06/09 12:07:57;;;;;;;7.93;5.10;;;29.30;55.40;;;;;;5047714;28;20037;-66
2023/06/09 12:10:27;;;;;;;6.63;5.15;;;29.30;55.80;;;;;;5050904;28;20116;-67
2023/06/09 12:12:54;;;;;;;6.55;5.43;;;29.30;56.90;;;;;;5054954;28;20119;-66
2023/06/09 12:15:22;;;;;;;7.93;5.63;;;29.30;56.70;;;;;;5055960;28;20060;-66
2023/06/09 12:17:49;;;;;;;8.82;5.60;;;29.20;55.40;;;;;;5055403;28;20033;-66
2023/06/09 12:20:18;;;;;;;16.63;5.78;;;29.20;56.30;;;;;;5051098;28;20084;-66
2023/06/09 12:22:44;;;;;;;6.57;4.95;;;29.30;56.40;;;;;;5049302;28;20041;-66
2023/06/09 12:25:28;;;;;;;6.95;4.88;;;29.30;55.90;;;;;;5047047;28;21382;-66
2023/06/09 12:28:13;;;;;;;6.82;5.45;;;29.30;56.00;;;;;;5050720;28;20493;-66
2023/06/09 12:30:49;;;;;;;9.75;4.90;;;29.40;55.70;;;;;;5056237;28;20032;-66
2023/06/09 12:33:20;;;;;;;7.68;5.28;;;29.40;55.10;;;;;;5053514;28;20072;-66
2023/06/09 12:35:47;;;;;;;;;;;29.40;55.50;;;;;;5053418;28;20060;-66
2023/06/09 12:38:15;;;;;;;10.75;5.40;;;29.20;56.50;;;;;;5057458;28;19996;-66
2023/06/09 12:41:05;;;;;;;8.00;5.45;;;29.20;56.20;;;;;;5056768;28;20041;-66
2023/06/09 12:43:43;;;;;;;11.75;5.90;;;29.30;55.80;;;;;;5056976;28;20044;-66
2023/06/09 12:46:09;;;;;;;5.53;5.03;;;29.40;53.60;;;;;;5057815;28;20045;-66